Black Butte, Oregon
Current Conditions -  °F | °C
As of 11:56 PM on Saturday 25 Oct 2014 (Local Time) from KRDM Reporting Station
Broken Clouds Broken Clouds  
Wind Chill: 39°   Ceiling: 8000
Heat Index: 43°   Visibility: 10mi
Dew Point: 35°   Wind: 6mph
Humidity: 74%   Direction: 200°SSW
Pressure: 29.94"   Gusts: NA
Location:  44.3095°N, 121.588°W
Report Text: KRDM 260656Z AUTO 20005KT 10SM SCT065 BKN080 06/02 A2994 RMK AO2 SLP130 T00610017
Loading
Personal Weather Stations






























Interactive Weather Map
Tropical Storm Tracking
New forecast layout! Learn more

10-Day Weather Forecast

Advertisements
Track Severe Weather on mobile